Time;durP1;ratioP1;P1;durP2;ratioP2;P2;SDS_P1;SDS_P2;PMS_P1;PMS_P2;Temp;Humidity;BMP_temperature;BMP_pressure;BME280_temperature;BME280_humidity;BME280_pressure;Samples;Min_cycle;Max_cycle;Signal;HPM_P1;HPM_P2
2023/12/31 00:01:03;;;;;;;7.32;4.03;;;15.10;40.30;;;;;;5062305;28;20037;-79
2023/12/31 00:03:29;;;;;;;6.57;3.45;;;15.30;31.10;;;;;;5049043;28;20037;-76
2023/12/31 00:05:55;;;;;;;4.85;3.13;;;15.30;37.20;;;;;;5034960;28;20043;-83
2023/12/31 00:08:20;;;;;;;5.10;3.60;;;14.20;28.20;;;;;;5039710;28;20441;-77
2023/12/31 00:10:46;;;;;;;4.53;3.83;;;14.70;29.10;;;;;;5057156;28;20473;-77
2023/12/31 00:13:12;;;;;;;4.40;2.88;;;14.80;46.70;;;;;;5075147;28;20041;-81
2023/12/31 00:15:37;;;;;;;5.50;3.55;;;14.50;51.40;;;;;;5050144;28;20496;-75
2023/12/31 00:18:03;;;;;;;5.85;3.53;;;14.00;47.20;;;;;;5059800;28;20106;-76
2023/12/31 00:20:29;;;;;;;5.00;3.78;;;15.30;59.10;;;;;;5034767;28;20037;-79
2023/12/31 00:22:56;;;;;;;5.03;3.63;;;14.10;41.70;;;;;;5034542;28;20559;-77
2023/12/31 00:25:21;;;;;;;5.00;3.67;;;14.40;61.10;;;;;;5035167;28;20036;-76
2023/12/31 00:27:47;;;;;;;5.85;3.70;;;14.10;71.70;;;;;;5051163;28;20041;-79
2023/12/31 00:30:13;;;;;;;4.22;3.30;;;14.70;78.30;;;;;;5077750;28;20049;-77
2023/12/31 00:32:39;;;;;;;5.53;3.20;;;15.30;80.00;;;;;;5060238;28;20047;-74
2023/12/31 00:35:05;;;;;;;4.70;3.28;;;14.90;88.00;;;;;;5034581;28;20033;-77
2023/12/31 00:37:30;;;;;;;3.70;3.10;;;13.90;85.80;;;;;;5042479;28;20116;-76
2023/12/31 00:39:56;;;;;;;4.07;2.58;;;15.30;93.70;;;;;;5033995;28;20115;-77
2023/12/31 00:42:22;;;;;;;4.32;3.00;;;14.90;91.30;;;;;;5075481;28;20104;-76
2023/12/31 00:44:47;;;;;;;4.72;3.00;;;13.70;87.20;;;;;;5035924;28;20119;-75
2023/12/31 00:47:13;;;;;;;4.28;3.17;;;13.70;91.40;;;;;;5035475;28;20041;-78
2023/12/31 00:49:39;;;;;;;4.47;3.03;;;13.80;80.60;;;;;;5045671;28;20045;-75
2023/12/31 00:52:05;;;;;;;4.00;2.97;;;13.90;83.80;;;;;;5048918;28;20044;-76
2023/12/31 00:54:30;;;;;;;4.53;3.33;;;14.70;90.10;;;;;;5051732;28;20397;-78
2023/12/31 00:56:57;;;;;;;4.30;3.15;;;14.70;95.70;;;;;;5051044;28;20045;-78
2023/12/31 00:59:23;;;;;;;3.85;2.95;;;14.70;93.30;;;;;;5077021;28;20036;-76
2023/12/31 01:01:50;;;;;;;5.72;3.20;;;13.60;93.60;;;;;;5069092;28;20048;-75
2023/12/31 01:04:18;;;;;;;5.40;3.20;;;14.80;97.20;;;;;;5035681;28;20044;-74
2023/12/31 01:06:44;;;;;;;3.53;2.90;;;14.00;66.50;;;;;;5032962;28;20102;-77
2023/12/31 01:09:10;;;;;;;3.58;2.90;;;14.90;44.20;;;;;;5059368;28;20056;-78
2023/12/31 01:11:36;;;;;;;3.60;2.88;;;14.10;54.30;;;;;;5071345;28;20040;-77
2023/12/31 01:14:02;;;;;;;3.50;2.83;;;15.30;36.20;;;;;;5015938;28;20421;-77
2023/12/31 01:16:28;;;;;;;5.53;3.05;;;14.00;48.20;;;;;;5042363;28;20037;-77
2023/12/31 01:18:53;;;;;;;3.78;2.60;;;14.70;44.20;;;;;;5033462;28;20040;-76
2023/12/31 01:21:20;;;;;;;3.38;2.65;;;13.80;55.00;;;;;;5050648;28;20044;-78
2023/12/31 01:23:45;;;;;;;4.78;3.00;;;15.00;44.10;;;;;;5027027;28;20381;-80
2023/12/31 01:26:11;;;;;;;4.32;3.05;;;14.60;33.00;;;;;;5033786;28;20048;-80
2023/12/31 01:28:37;;;;;;;4.43;2.83;;;13.70;33.90;;;;;;5033137;28;20049;-77
2023/12/31 01:31:03;;;;;;;3.38;2.50;;;15.30;42.90;;;;;;5016845;28;20121;-77
2023/12/31 01:33:28;;;;;;;3.00;2.47;;;14.20;60.10;;;;;;5031147;28;20116;-80
2023/12/31 01:35:54;;;;;;;3.22;2.90;;;14.70;62.20;;;;;;5057797;28;20033;-76
2023/12/31 01:38:20;;;;;;;3.28;2.33;;;14.50;66.70;;;;;;5056002;28;20029;-79
2023/12/31 01:40:54;;;;;;;3.60;2.47;;;13.90;79.90;;;;;;5041705;28;20118;-74
2023/12/31 01:43:22;;;;;;;3.90;2.55;;;15.10;78.30;;;;;;5057261;28;20127;-76
2023/12/31 01:45:48;;;;;;;4.05;2.83;;;15.00;91.60;;;;;;5076883;28;20041;-78
2023/12/31 01:48:15;;;;;;;3.85;3.10;;;14.90;99.90;;;;;;5033330;28;20052;-77
2023/12/31 01:50:41;;;;;;;3.88;2.78;;;14.10;99.90;;;;;;5038631;28;20037;-80
2023/12/31 01:53:08;;;;;;;4.88;3.38;;;13.90;99.90;;;;;;5032663;28;20079;-78
2023/12/31 01:55:34;;;;;;;4.55;2.85;;;14.50;99.90;;;;;;5030478;28;20049;-77
2023/12/31 01:58:00;;;;;;;3.55;2.80;;;14.30;99.90;;;;;;5032409;28;20041;-79
2023/12/31 02:00:26;;;;;;;3.97;3.15;;;13.60;99.90;;;;;;5030870;28;20045;-75
2023/12/31 02:02:53;;;;;;;5.05;3.15;;;13.60;99.90;;;;;;5015681;28;20568;-78
2023/12/31 02:05:19;;;;;;;3.58;3.05;;;13.40;99.90;;;;;;5051715;28;20067;-77
2023/12/31 02:07:45;;;;;;;4.40;3.40;;;14.10;99.90;;;;;;5016712;28;20037;-79
2023/12/31 02:10:11;;;;;;;4.63;3.20;;;14.40;99.90;;;;;;5033032;28;20041;-74
2023/12/31 02:12:37;;;;;;;5.18;3.60;;;13.80;99.90;;;;;;5013526;28;20493;-82
2023/12/31 02:15:03;;;;;;;3.95;3.38;;;13.70;99.90;;;;;;5033592;28;20056;-78
2023/12/31 02:17:28;;;;;;;3.83;3.50;;;13.60;99.90;;;;;;5052603;28;20029;-75
2023/12/31 02:19:54;;;;;;;4.95;3.97;;;14.10;99.90;;;;;;5055137;28;20389;-80
2023/12/31 02:22:21;;;;;;;5.18;4.10;;;14.60;99.90;;;;;;5039339;28;20532;-79
2023/12/31 02:24:48;;;;;;;5.65;4.10;;;13.20;99.90;;;;;;5053048;28;20657;-76
2023/12/31 02:27:14;;;;;;;6.03;4.03;;;13.60;99.90;;;;;;5037425;28;20444;-80
2023/12/31 02:29:40;;;;;;;4.95;4.18;;;14.10;99.90;;;;;;5019556;28;20060;-76
2023/12/31 02:32:06;;;;;;;4.72;4.13;;;14.20;99.90;;;;;;5019395;28;20045;-76
2023/12/31 02:34:31;;;;;;;4.95;4.30;;;13.50;99.90;;;;;;5054109;28;20497;-78
2023/12/31 02:36:57;;;;;;;5.43;4.18;;;14.30;99.90;;;;;;5055558;28;20041;-77
2023/12/31 02:39:24;;;;;;;4.80;4.30;;;14.20;99.90;;;;;;5064073;28;20051;-79
2023/12/31 02:41:49;;;;;;;6.30;4.32;;;13.20;99.90;;;;;;5038804;28;20084;-78
2023/12/31 02:44:15;;;;;;;4.75;3.95;;;13.10;99.90;;;;;;5039490;28;20072;-76
2023/12/31 02:46:41;;;;;;;5.18;4.68;;;14.10;99.90;;;;;;5038995;28;20481;-76
2023/12/31 02:49:08;;;;;;;5.28;4.20;;;14.30;99.90;;;;;;5037425;28;20047;-78
2023/12/31 02:51:34;;;;;;;7.32;4.40;;;13.50;99.90;;;;;;5021730;28;20091;-77
2023/12/31 02:54:00;;;;;;;5.22;4.03;;;14.40;99.90;;;;;;5056207;28;20396;-75
2023/12/31 02:56:26;;;;;;;5.03;3.72;;;13.20;99.90;;;;;;5015948;28;20116;-77
2023/12/31 02:58:52;;;;;;;5.32;3.85;;;14.30;99.90;;;;;;5054785;28;20068;-74
2023/12/31 03:01:17;;;;;;;5.15;3.53;;;13.70;99.90;;;;;;5037724;28;20076;-76
2023/12/31 03:03:43;;;;;;;4.63;3.28;;;13.90;99.90;;;;;;5055169;28;20048;-76
2023/12/31 03:06:10;;;;;;;4.45;3.17;;;13.60;99.90;;;;;;5021577;28;20045;-81
2023/12/31 03:08:36;;;;;;;4.53;3.28;;;14.60;99.90;;;;;;5055469;28;20041;-80
2023/12/31 03:11:03;;;;;;;4.20;3.35;;;13.40;99.90;;;;;;5055095;28;20060;-78
2023/12/31 03:13:29;;;;;;;3.70;3.00;;;14.50;99.90;;;;;;5022626;28;20052;-80
2023/12/31 03:15:54;;;;;;;4.90;2.95;;;14.10;99.90;;;;;;5038104;28;20049;-78
2023/12/31 03:18:20;;;;;;;3.55;2.70;;;14.30;95.60;;;;;;5056062;28;20055;-77
2023/12/31 03:20:46;;;;;;;4.25;2.80;;;14.10;95.80;;;;;;5039122;28;20045;-76
2023/12/31 03:23:11;;;;;;;4.20;2.90;;;14.20;79.40;;;;;;5058806;28;20071;-78
2023/12/31 03:25:37;;;;;;;2.78;2.50;;;14.00;74.70;;;;;;5054078;28;20508;-77
2023/12/31 03:28:03;;;;;;;4.47;2.80;;;14.20;82.50;;;;;;5017638;28;20037;-78
2023/12/31 03:30:29;;;;;;;3.28;2.47;;;13.30;78.80;;;;;;5028345;28;20057;-77
2023/12/31 03:32:54;;;;;;;4.35;2.95;;;14.60;73.90;;;;;;5051367;28;20040;-78
2023/12/31 03:35:20;;;;;;;4.65;3.10;;;14.40;54.60;;;;;;5018745;28;20124;-77
2023/12/31 03:37:47;;;;;;;5.05;3.20;;;14.20;39.40;;;;;;5034853;28;20049;-79
2023/12/31 03:40:13;;;;;;;2.67;2.25;;;13.30;12.20;;;;;;5036233;28;20056;-79
2023/12/31 03:42:39;;;;;;;2.88;2.30;;;14.50;2.40;;;;;;5075580;28;20477;-78
2023/12/31 03:45:05;;;;;;;2.88;2.20;;;14.00;3.40;;;;;;5077277;28;20033;-78
2023/12/31 03:47:30;;;;;;;3.97;2.60;;;13.40;7.30;;;;;;5062010;28;20059;-80
2023/12/31 03:49:56;;;;;;;3.92;2.60;;;13.90;7.10;;;;;;5032073;28;20715;-77
2023/12/31 03:52:22;;;;;;;3.60;2.22;;;13.70;9.30;;;;;;5019224;28;20073;-76
2023/12/31 03:54:47;;;;;;;3.00;2.55;;;14.10;1.00;;;;;;5035913;28;20033;-78
2023/12/31 03:57:14;;;;;;;2.50;2.00;;;13.40;1.00;;;;;;4999883;28;20051;-78
2023/12/31 03:59:39;;;;;;;4.30;2.60;;;13.40;1.00;;;;;;5036302;28;20116;-78
2023/12/31 04:02:05;;;;;;;3.60;2.47;;;14.10;1.00;;;;;;5035038;28;20641;-77
2023/12/31 04:04:31;;;;;;;2.60;2.38;;;13.90;1.00;;;;;;5035773;28;20045;-77
2023/12/31 04:06:57;;;;;;;3.60;2.40;;;13.40;7.00;;;;;;5016070;28;20424;-79
2023/12/31 04:09:22;;;;;;;3.08;2.38;;;14.40;1.00;;;;;;5044361;28;20095;-78
2023/12/31 04:11:48;;;;;;;2.65;2.40;;;14.50;6.00;;;;;;5016829;28;20046;-75
2023/12/31 04:14:14;;;;;;;2.88;2.50;;;13.70;13.30;;;;;;5034827;28;20592;-79
2023/12/31 04:16:39;;;;;;;3.95;2.67;;;13.40;11.90;;;;;;5035412;28;20041;-76
2023/12/31 04:19:05;;;;;;;2.88;2.50;;;14.60;17.90;;;;;;5033793;28;20355;-78
2023/12/31 04:21:31;;;;;;;3.30;2.50;;;14.20;17.90;;;;;;5035737;28;20039;-80
2023/12/31 04:23:56;;;;;;;4.63;2.42;;;13.40;29.20;;;;;;5032548;28;20041;-78
2023/12/31 04:26:22;;;;;;;3.65;2.75;;;13.60;37.30;;;;;;5018785;28;20413;-78
2023/12/31 04:28:48;;;;;;;3.35;2.28;;;13.80;40.60;;;;;;5032373;28;20087;-75
2023/12/31 04:31:13;;;;;;;2.92;2.42;;;13.80;55.30;;;;;;5051443;28;20049;-78
2023/12/31 04:33:39;;;;;;;3.60;2.50;;;14.60;47.70;;;;;;5051165;28;20477;-78
2023/12/31 04:36:05;;;;;;;3.20;2.25;;;14.40;59.10;;;;;;5041455;28;20041;-80
2023/12/31 04:38:32;;;;;;;3.00;2.45;;;14.20;77.90;;;;;;5049020;28;20037;-77
2023/12/31 04:40:58;;;;;;;2.90;2.42;;;14.50;74.10;;;;;;5029505;28;20064;-78
2023/12/31 04:43:24;;;;;;;2.75;2.33;;;13.40;77.50;;;;;;5006535;28;20520;-77
2023/12/31 04:45:49;;;;;;;3.10;2.67;;;13.30;82.20;;;;;;5051449;28;20076;-76
2023/12/31 04:48:15;;;;;;;2.90;2.60;;;14.20;90.10;;;;;;5017648;28;20098;-77
2023/12/31 04:50:42;;;;;;;3.58;2.80;;;14.70;90.80;;;;;;5033425;28;20099;-81
2023/12/31 04:53:08;;;;;;;3.25;2.83;;;13.60;74.30;;;;;;5075375;28;20037;-78
2023/12/31 04:55:34;;;;;;;3.47;2.97;;;14.30;74.40;;;;;;5051061;28;20055;-77
2023/12/31 04:58:00;;;;;;;3.88;2.92;;;13.40;69.70;;;;;;5030002;28;20052;-78
2023/12/31 05:00:25;;;;;;;3.72;2.63;;;14.70;76.30;;;;;;5060723;28;20400;-80
2023/12/31 05:02:51;;;;;;;3.83;2.90;;;13.30;59.10;;;;;;5049032;28;20516;-77
2023/12/31 05:05:17;;;;;;;3.88;2.95;;;14.00;49.50;;;;;;5016332;28;20409;-81
2023/12/31 05:07:42;;;;;;;3.17;2.55;;;14.80;50.40;;;;;;5054785;28;20036;-76
2023/12/31 05:10:09;;;;;;;2.90;2.60;;;14.50;31.40;;;;;;5040948;28;20088;-82
2023/12/31 05:12:35;;;;;;;3.80;3.25;;;13.30;33.00;;;;;;5035833;28;20044;-77
2023/12/31 05:15:00;;;;;;;4.45;3.50;;;14.30;32.90;;;;;;5051383;28;20037;-75
2023/12/31 05:17:26;;;;;;;3.67;3.10;;;13.80;29.00;;;;;;5015264;28;20041;-76
2023/12/31 05:19:52;;;;;;;5.57;3.50;;;14.40;15.10;;;;;;5032305;28;20033;-80
2023/12/31 05:22:18;;;;;;;3.92;2.90;;;13.80;12.50;;;;;;5013800;28;20073;-76
2023/12/31 05:24:44;;;;;;;4.45;3.40;;;13.80;2.20;;;;;;5033600;28;20095;-76
2023/12/31 05:27:09;;;;;;;4.03;3.50;;;14.90;5.30;;;;;;5045973;28;20537;-76
2023/12/31 05:29:35;;;;;;;4.57;3.20;;;14.70;1.00;;;;;;5033597;28;20140;-77
2023/12/31 05:32:01;;;;;;;4.18;3.13;;;13.40;1.00;;;;;;5040652;28;20053;-77
2023/12/31 05:34:26;;;;;;;4.65;3.60;;;14.00;1.00;;;;;;5057813;28;20370;-77
2023/12/31 05:36:52;;;;;;;3.33;2.90;;;14.30;1.00;;;;;;5037143;28;20037;-76
2023/12/31 05:39:18;;;;;;;3.35;2.97;;;14.70;1.00;;;;;;5033272;28;20037;-75
2023/12/31 05:41:44;;;;;;;4.38;3.13;;;13.40;1.00;;;;;;5068449;28;20041;-76
2023/12/31 05:44:09;;;;;;;4.35;3.40;;;14.70;1.00;;;;;;5033433;28;20119;-78
2023/12/31 05:46:36;;;;;;;4.00;3.25;;;14.00;1.00;;;;;;5058393;28;20033;-81
2023/12/31 05:49:02;;;;;;;5.57;3.90;;;14.60;1.00;;;;;;5034904;28;20069;-77
2023/12/31 05:51:29;;;;;;;3.78;3.38;;;13.90;1.00;;;;;;5014741;28;20497;-80
2023/12/31 05:53:55;;;;;;;3.70;3.08;;;14.00;1.00;;;;;;5035806;28;20045;-78
2023/12/31 05:56:20;;;;;;;4.43;3.08;;;14.30;1.00;;;;;;5032928;28;20033;-80
2023/12/31 05:58:46;;;;;;;3.70;3.25;;;13.70;1.00;;;;;;5031759;28;20037;-76
2023/12/31 06:01:12;;;;;;;3.88;2.80;;;14.80;1.00;;;;;;5032185;28;20029;-76
2023/12/31 06:03:38;;;;;;;6.07;3.33;;;13.60;1.00;;;;;;5014974;28;20045;-74
2023/12/31 06:06:04;;;;;;;5.18;3.10;;;14.80;1.00;;;;;;5047178;28;20057;-74
2023/12/31 06:08:29;;;;;;;4.70;3.20;;;14.60;1.00;;;;;;5014212;28;20124;-75
2023/12/31 06:10:55;;;;;;;3.80;3.08;;;14.90;1.00;;;;;;5046679;28;20040;-80
2023/12/31 06:13:21;;;;;;;3.78;3.33;;;14.00;1.00;;;;;;5049233;28;20123;-79
2023/12/31 06:15:47;;;;;;;3.28;2.97;;;13.70;99.90;;;;;;5001220;28;20120;-74
2023/12/31 06:18:13;;;;;;;4.30;3.13;;;14.30;1.00;;;;;;5032513;28;20048;-77
2023/12/31 06:20:39;;;;;;;3.60;2.63;;;13.90;99.90;;;;;;5050562;28;20044;-75
2023/12/31 06:23:04;;;;;;;4.60;3.10;;;14.50;99.90;;;;;;5035506;28;20077;-77
2023/12/31 06:25:30;;;;;;;4.53;3.05;;;14.60;99.90;;;;;;5051752;28;20083;-80
2023/12/31 06:27:57;;;;;;;3.70;3.38;;;13.90;99.90;;;;;;5041396;28;20041;-75
2023/12/31 06:30:22;;;;;;;4.00;3.38;;;14.80;99.90;;;;;;5041749;28;20049;-79
2023/12/31 06:32:48;;;;;;;4.00;3.25;;;13.60;99.90;;;;;;5016110;28;20044;-77
2023/12/31 06:35:14;;;;;;;3.97;3.03;;;13.70;99.90;;;;;;5032552;28;20427;-79
2023/12/31 06:37:40;;;;;;;3.55;3.17;;;13.70;99.90;;;;;;5039680;28;20461;-80
2023/12/31 06:40:08;;;;;;;9.00;3.60;;;13.70;99.90;;;;;;5012554;28;20029;-79
2023/12/31 06:42:33;;;;;;;3.78;3.42;;;14.80;99.90;;;;;;5042003;28;20044;-81
2023/12/31 06:44:59;;;;;;;4.57;3.30;;;14.30;99.90;;;;;;5033007;28;20041;-81
2023/12/31 06:47:25;;;;;;;3.25;2.95;;;14.40;99.90;;;;;;5060946;28;20080;-75
2023/12/31 06:49:52;;;;;;;4.03;2.95;;;13.80;99.90;;;;;;5050504;28;20056;-80
2023/12/31 06:52:19;;;;;;;3.90;3.03;;;13.70;99.90;;;;;;5017405;28;20117;-78
2023/12/31 06:54:46;;;;;;;3.45;3.05;;;14.00;99.90;;;;;;5050681;28;20076;-80
2023/12/31 06:57:11;;;;;;;3.78;3.00;;;14.10;99.90;;;;;;5049874;28;20041;-76
2023/12/31 06:59:37;;;;;;;4.15;3.17;;;13.90;99.90;;;;;;5043489;28;20039;-78
2023/12/31 07:02:04;;;;;;;4.53;3.67;;;14.70;99.90;;;;;;5050039;28;20048;-75
2023/12/31 07:04:29;;;;;;;3.83;2.88;;;14.90;99.90;;;;;;5035583;28;20040;-76
2023/12/31 07:06:55;;;;;;;3.60;3.15;;;14.90;99.90;;;;;;5060418;28;20041;-77
2023/12/31 07:09:21;;;;;;;3.72;2.97;;;14.40;99.90;;;;;;5051280;28;20397;-78
2023/12/31 07:11:47;;;;;;;3.17;2.88;;;13.90;99.90;;;;;;5044414;28;20086;-78
2023/12/31 07:14:12;;;;;;;3.45;2.97;;;14.20;99.90;;;;;;5051896;28;20037;-75
2023/12/31 07:16:38;;;;;;;4.22;3.38;;;13.90;99.90;;;;;;5031664;28;20037;-82
2023/12/31 07:19:04;;;;;;;3.63;3.20;;;14.00;99.90;;;;;;5034375;28;20124;-75
2023/12/31 07:21:29;;;;;;;4.07;3.13;;;14.60;99.90;;;;;;5052264;28;20040;-78
2023/12/31 07:23:55;;;;;;;3.70;3.13;;;15.10;99.90;;;;;;5053525;28;20033;-76
2023/12/31 07:26:28;;;;;;;4.20;3.28;;;15.10;99.90;;;;;;5062557;28;20125;-79
2023/12/31 07:28:54;;;;;;;3.30;2.85;;;14.20;99.90;;;;;;5045693;28;20059;-75
2023/12/31 07:31:23;;;;;;;4.47;3.17;;;14.40;99.90;;;;;;5031492;28;20045;-78
2023/12/31 07:33:50;;;;;;;3.78;3.35;;;14.70;99.90;;;;;;5035534;28;20405;-80
2023/12/31 07:36:16;;;;;;;5.13;3.30;;;14.70;99.90;;;;;;5052208;28;20037;-79
2023/12/31 07:38:45;;;;;;;3.42;3.10;;;14.90;99.90;;;;;;5077200;28;20078;-79
2023/12/31 07:41:12;;;;;;;3.17;2.88;;;14.50;99.90;;;;;;5035762;28;20087;-81
2023/12/31 07:43:38;;;;;;;4.55;3.20;;;14.80;99.90;;;;;;5033012;28;20127;-80
2023/12/31 07:46:04;;;;;;;3.50;3.10;;;15.00;99.90;;;;;;5033323;28;20453;-79
2023/12/31 07:48:29;;;;;;;4.38;2.90;;;14.60;99.90;;;;;;5043719;28;20041;-79
2023/12/31 07:50:55;;;;;;;3.80;3.25;;;14.40;99.90;;;;;;5064601;28;20048;-76
2023/12/31 07:53:21;;;;;;;3.35;2.90;;;14.40;99.90;;;;;;5044788;28;20042;-76
2023/12/31 07:55:47;;;;;;;4.30;2.60;;;14.50;99.90;;;;;;5050238;28;20037;-80
2023/12/31 07:58:13;;;;;;;3.15;2.83;;;14.40;99.90;;;;;;5036050;28;20045;-78
2023/12/31 08:00:39;;;;;;;4.07;2.90;;;15.00;99.90;;;;;;5060370;28;20033;-75
2023/12/31 08:03:04;;;;;;;3.40;3.05;;;15.20;99.90;;;;;;5051142;28;20033;-76
2023/12/31 08:05:32;;;;;;;3.67;2.92;;;14.40;99.90;;;;;;5058583;28;20120;-80
2023/12/31 08:07:58;;;;;;;2.90;2.70;;;15.00;99.90;;;;;;5034749;28;20072;-79
2023/12/31 08:10:23;;;;;;;3.85;2.80;;;15.30;99.90;;;;;;5034364;28;20449;-80
2023/12/31 08:12:49;;;;;;;2.25;2.05;;;15.30;99.90;;;;;;5057085;28;20033;-75
2023/12/31 08:15:15;;;;;;;4.07;3.00;;;14.40;99.90;;;;;;5030493;28;20039;-78
2023/12/31 08:17:41;;;;;;;4.15;3.30;;;15.00;99.90;;;;;;5058450;28;20492;-83
2023/12/31 08:20:07;;;;;;;4.05;2.90;;;14.40;99.90;;;;;;5034374;28;20037;-77
2023/12/31 08:22:33;;;;;;;3.03;2.60;;;14.30;99.90;;;;;;5059084;28;20052;-82
2023/12/31 08:25:00;;;;;;;3.45;2.83;;;15.00;99.90;;;;;;5018117;28;20045;-78
2023/12/31 08:27:26;;;;;;;3.45;2.85;;;14.40;99.90;;;;;;5016523;28;20127;-78
2023/12/31 08:29:51;;;;;;;3.00;2.70;;;15.30;99.90;;;;;;5033997;28;20187;-84
2023/12/31 08:32:18;;;;;;;3.00;2.70;;;14.40;99.90;;;;;;5015557;28;20048;-78
2023/12/31 08:34:45;;;;;;;2.90;2.70;;;14.30;99.90;;;;;;5043542;28;20052;-82
2023/12/31 08:37:11;;;;;;;3.05;2.67;;;14.30;99.90;;;;;;5061042;28;20032;-81
2023/12/31 08:39:41;;;;;;;3.00;2.70;;;14.50;99.90;;;;;;5048385;28;20033;-80
2023/12/31 08:42:06;;;;;;;2.92;2.63;;;14.20;99.90;;;;;;5035914;28;20049;-78
2023/12/31 08:44:32;;;;;;;3.53;2.85;;;15.10;99.90;;;;;;5035595;28;20041;-80
2023/12/31 08:46:58;;;;;;;3.00;2.67;;;14.30;99.90;;;;;;5041852;28;20401;-76
2023/12/31 08:49:26;;;;;;;4.20;2.85;;;14.50;99.90;;;;;;5032414;28;20052;-84
2023/12/31 08:51:52;;;;;;;3.30;3.00;;;14.50;99.90;;;;;;5034594;28;20045;-75
2023/12/31 08:54:17;;;;;;;2.97;2.67;;;14.80;99.90;;;;;;5029824;28;20102;-78
2023/12/31 08:56:44;;;;;;;3.72;2.90;;;15.20;99.90;;;;;;5043723;28;20041;-77
2023/12/31 08:59:09;;;;;;;3.60;2.83;;;14.30;99.90;;;;;;5031706;28;20374;-78
2023/12/31 09:01:35;;;;;;;3.15;2.83;;;14.70;99.90;;;;;;5029147;28;20095;-76
2023/12/31 09:04:00;;;;;;;2.50;2.30;;;15.30;99.90;;;;;;5032396;28;20489;-81
2023/12/31 09:06:26;;;;;;;3.30;2.83;;;14.80;99.90;;;;;;5049624;28;20041;-82
2023/12/31 09:08:52;;;;;;;3.25;2.95;;;14.60;99.90;;;;;;5001351;28;20072;-77
2023/12/31 09:11:19;;;;;;;3.40;2.75;;;14.70;99.90;;;;;;4996701;28;20130;-78
2023/12/31 09:13:45;;;;;;;4.20;2.92;;;14.70;99.90;;;;;;5033563;28;20383;-81
2023/12/31 09:16:11;;;;;;;3.33;2.92;;;14.50;99.90;;;;;;5032661;28;20044;-84
2023/12/31 09:18:37;;;;;;;3.95;3.05;;;14.80;99.90;;;;;;5034029;28;20086;-82
2023/12/31 09:21:03;;;;;;;3.75;3.10;;;15.10;99.90;;;;;;5034025;28;20041;-81
2023/12/31 09:23:29;;;;;;;3.10;2.47;;;14.60;99.90;;;;;;5031277;28;20397;-78
2023/12/31 09:25:55;;;;;;;3.83;2.70;;;15.50;99.90;;;;;;5015415;28;20060;-79
2023/12/31 09:28:20;;;;;;;4.35;2.60;;;14.80;99.90;;;;;;5045570;28;20094;-79
2023/12/31 09:30:46;;;;;;;3.35;2.33;;;14.90;99.90;;;;;;5048790;28;20091;-78
2023/12/31 09:33:12;;;;;;;3.50;3.20;;;15.60;99.90;;;;;;5049304;28;20099;-79
2023/12/31 09:35:38;;;;;;;3.15;2.85;;;15.40;99.90;;;;;;5053588;28;20094;-78
2023/12/31 09:38:04;;;;;;;4.20;2.90;;;14.80;99.90;;;;;;5047443;28;20041;-79
2023/12/31 09:40:29;;;;;;;3.60;3.08;;;15.40;99.90;;;;;;5010430;28;20033;-79
2023/12/31 09:42:55;;;;;;;5.28;3.70;;;14.70;99.90;;;;;;5030347;28;20183;-79
2023/12/31 09:45:28;;;;;;;3.90;2.95;;;15.50;99.90;;;;;;5043835;28;20060;-84
2023/12/31 09:47:57;;;;;;;3.58;3.03;;;15.60;99.90;;;;;;5032635;28;20044;-82
2023/12/31 09:50:23;;;;;;;3.33;2.70;;;14.70;99.90;;;;;;5049128;28;20060;-79
2023/12/31 09:52:50;;;;;;;3.45;3.00;;;15.30;99.90;;;;;;5032254;28;20041;-77
2023/12/31 09:55:20;;;;;;;4.15;3.40;;;15.50;99.90;;;;;;5060182;28;20369;-81
2023/12/31 09:57:47;;;;;;;3.85;3.08;;;14.90;99.90;;;;;;5048173;28;20037;-77
2023/12/31 10:00:13;;;;;;;3.88;3.47;;;15.10;99.90;;;;;;5047671;28;20033;-77
2023/12/31 10:02:41;;;;;;;4.03;3.30;;;15.30;99.90;;;;;;5072576;28;20116;-79
2023/12/31 10:05:07;;;;;;;4.28;3.30;;;15.70;99.90;;;;;;5024029;28;20045;-80
2023/12/31 10:07:34;;;;;;;3.90;3.50;;;14.80;99.90;;;;;;5046090;28;20477;-77
2023/12/31 10:10:00;;;;;;;4.85;3.20;;;15.60;99.90;;;;;;5057580;28;20056;-78
2023/12/31 10:12:27;;;;;;;4.88;3.13;;;15.00;99.90;;;;;;5074780;28;20396;-78
2023/12/31 10:14:54;;;;;;;5.07;3.95;;;15.00;99.90;;;;;;5032683;28;20060;-77
2023/12/31 10:17:20;;;;;;;3.85;3.10;;;15.50;99.90;;;;;;5048926;28;20382;-82
2023/12/31 10:19:46;;;;;;;5.07;3.70;;;15.80;99.90;;;;;;5056864;28;20051;-77
2023/12/31 10:22:13;;;;;;;3.97;3.58;;;15.40;99.90;;;;;;5074183;28;20049;-78
2023/12/31 10:24:41;;;;;;;5.78;4.03;;;15.50;99.90;;;;;;5058945;28;20056;-78
2023/12/31 10:27:08;;;;;;;4.00;3.60;;;15.60;99.90;;;;;;5032476;28;20448;-77
2023/12/31 10:29:35;;;;;;;4.75;4.18;;;14.90;99.90;;;;;;5052761;28;20067;-78
2023/12/31 10:32:02;;;;;;;3.72;3.38;;;14.90;99.90;;;;;;5037511;28;20465;-76
2023/12/31 10:34:28;;;;;;;3.53;3.22;;;15.30;99.90;;;;;;5032138;28;20033;-81
2023/12/31 10:37:07;;;;;;;4.05;3.13;;;15.70;99.90;;;;;;5053075;28;20037;-79
2023/12/31 10:39:34;;;;;;;4.03;3.60;;;15.60;99.90;;;;;;5063329;28;20040;-81
2023/12/31 10:42:04;;;;;;;4.75;3.67;;;15.60;99.90;;;;;;5088172;28;20039;-80
2023/12/31 10:44:35;;;;;;;4.32;3.80;;;15.50;99.90;;;;;;5072537;28;20036;-78
2023/12/31 10:47:06;;;;;;;5.13;3.70;;;15.30;99.90;;;;;;5033829;28;20041;-80
2023/12/31 10:49:32;;;;;;;5.03;4.03;;;15.90;99.90;;;;;;5049127;28;20088;-81
2023/12/31 10:52:03;;;;;;;3.35;3.05;;;15.10;99.90;;;;;;5033491;28;20040;-80
2023/12/31 10:54:51;;;;;;;4.60;3.33;;;15.80;99.90;;;;;;5034421;28;20037;-78
2023/12/31 10:57:17;;;;;;;4.20;3.80;;;15.40;99.90;;;;;;5050814;28;20124;-81
2023/12/31 10:59:43;;;;;;;5.95;4.03;;;15.90;99.90;;;;;;5035880;28;20167;-81
2023/12/31 11:02:17;;;;;;;3.95;3.53;;;15.30;99.90;;;;;;5034384;28;20052;-80
2023/12/31 11:04:47;;;;;;;12.90;3.72;;;15.90;95.80;;;;;;5012745;28;20068;-79
2023/12/31 11:07:18;;;;;;;4.22;3.55;;;16.00;95.40;;;;;;5029260;28;20040;-83
2023/12/31 11:09:46;;;;;;;4.55;3.50;;;15.60;97.70;;;;;;5049120;28;20064;-80
2023/12/31 11:12:16;;;;;;;4.72;3.83;;;15.50;95.60;;;;;;5028223;28;20082;-82
2023/12/31 11:15:05;;;;;;;3.80;3.42;;;15.40;96.10;;;;;;5046494;28;20039;-80
2023/12/31 11:17:56;;;;;;;5.20;4.40;;;16.10;97.90;;;;;;5048935;28;20115;-81
2023/12/31 11:21:04;;;;;;;4.28;3.88;;;15.40;99.90;;;;;;5050259;28;20063;-83
2023/12/31 11:23:57;;;;;;;5.28;4.60;;;16.30;99.90;;;;;;5033024;28;20044;-79
2023/12/31 11:26:24;;;;;;;3.80;3.38;;;15.90;99.90;;;;;;5030600;28;20123;-83
2023/12/31 11:28:50;;;;;;;4.25;3.85;;;16.20;99.90;;;;;;5026011;28;20087;-79
2023/12/31 11:31:16;;;;;;;4.50;3.83;;;16.20;99.90;;;;;;5025389;28;20043;-80
2023/12/31 11:33:44;;;;;;;4.00;3.60;;;16.30;99.90;;;;;;5027769;28;20120;-78
2023/12/31 11:36:15;;;;;;;5.60;3.88;;;15.30;99.90;;;;;;5017205;28;20034;-78
2023/12/31 11:38:56;;;;;;;4.30;3.90;;;16.10;99.90;;;;;;5015948;28;20359;-79
2023/12/31 11:41:24;;;;;;;4.65;4.05;;;15.60;99.90;;;;;;5083964;28;20825;-79
2023/12/31 11:43:52;;;;;;;4.88;4.35;;;16.00;1.00;;;;;;5037560;28;20045;-80
2023/12/31 11:46:39;;;;;;;4.50;4.10;;;16.10;1.00;;;;;;5031608;28;20049;-78
2023/12/31 11:49:12;;;;;;;5.07;4.55;;;15.80;1.00;;;;;;5042798;28;20045;-77
2023/12/31 11:52:01;;;;;;;5.00;4.50;;;15.30;99.90;;;;;;5055620;28;20049;-80
2023/12/31 11:54:33;;;;;;;7.40;5.25;;;14.20;99.90;;;;;;5026200;28;20045;-78
2023/12/31 11:57:00;;;;;;;5.93;4.80;;;13.90;99.90;;;;;;5039501;28;20045;-78
2023/12/31 11:59:26;;;;;;;3.28;2.33;;;15.30;99.90;;;;;;5043752;28;20093;-78
2023/12/31 12:01:53;;;;;;;2.55;2.05;;;13.30;99.90;;;;;;5031874;28;20048;-77
2023/12/31 12:04:20;;;;;;;2.97;1.50;;;13.20;99.90;;;;;;5070617;28;20050;-79
2023/12/31 12:06:46;;;;;;;2.10;1.40;;;13.00;99.90;;;;;;5013887;28;20042;-80
2023/12/31 12:09:12;;;;;;;1.20;1.10;;;12.80;1.00;;;;;;5047151;28;20477;-77
2023/12/31 12:11:42;;;;;;;1.85;1.27;;;14.70;1.00;;;;;;5027295;28;20041;-77
2023/12/31 12:14:10;;;;;;;1.58;1.30;;;13.70;7.00;;;;;;5050620;28;20048;-78
2023/12/31 12:16:36;;;;;;;2.88;2.00;;;15.10;99.90;;;;;;5049590;28;20041;-75
2023/12/31 12:19:05;;;;;;;2.08;1.83;;;12.70;99.90;;;;;;5040321;28;20131;-77
2023/12/31 12:21:31;;;;;;;2.53;2.00;;;12.70;99.90;;;;;;5074886;28;20029;-76
2023/12/31 12:23:57;;;;;;;4.80;3.53;;;13.20;99.90;;;;;;5025838;28;20052;-76
2023/12/31 12:26:23;;;;;;;2.58;1.90;;;13.70;99.90;;;;;;5027229;28;20048;-76
2023/12/31 12:28:55;;;;;;;2.10;1.77;;;12.80;99.90;;;;;;5032039;28;20409;-77
2023/12/31 12:31:22;;;;;;;2.17;1.52;;;12.70;99.90;;;;;;5069126;28;20053;-75
2023/12/31 12:33:56;;;;;;;2.40;1.60;;;14.20;99.90;;;;;;5021649;28;20469;-77
2023/12/31 12:36:23;;;;;;;2.77;1.97;;;12.80;99.90;;;;;;5033092;28;20179;-77
2023/12/31 12:38:49;;;;;;;2.80;1.83;;;13.10;99.90;;;;;;5073194;28;20037;-80
2023/12/31 12:41:24;;;;;;;2.85;2.20;;;13.80;99.90;;;;;;5047861;28;20044;-78
2023/12/31 12:43:56;;;;;;;;;;;13.70;99.90;;;;;;5042117;28;20045;-80
2023/12/31 12:46:34;;;;;;;3.25;2.47;;;13.30;1.00;;;;;;5039641;28;20377;-76